Time;durP1;ratioP1;P1;durP2;ratioP2;P2;SDS_P1;SDS_P2;PMS_P1;PMS_P2;Temp;Humidity;BMP_temperature;BMP_pressure;BME280_temperature;BME280_humidity;BME280_pressure;Samples;Min_cycle;Max_cycle;Signal;HPM_P1;HPM_P2
2023/03/21 00:00:22;;;;;;;10.57;6.03;;;;;;;;;;5034795;28;20140;-80
2023/03/21 00:02:50;;;;;;;11.00;5.55;;;;;;;;;;5032360;28;20053;-79
2023/03/21 00:05:16;;;;;;;8.95;4.75;;;;;;;;;;5028741;28;20052;-79
2023/03/21 00:07:43;;;;;;;11.20;5.30;;;;;;;;;;5028424;28;20056;-78
2023/03/21 00:10:10;;;;;;;9.90;5.55;;;;;;;;;;5029521;28;20297;-78
2023/03/21 00:12:43;;;;;;;11.45;5.50;;;;;;;;;;5036592;28;20044;-78
2023/03/21 00:15:12;;;;;;;11.30;5.30;;;;;;;;;;5029367;28;20411;-79
2023/03/21 00:17:39;;;;;;;11.93;5.18;;;;;;;;;;5031887;28;20064;-79
2023/03/21 00:20:10;;;;;;;8.77;5.05;;;;;;;;;;5031575;28;20139;-78
2023/03/21 00:22:38;;;;;;;9.25;5.45;;;;;;;;;;5031564;28;20053;-79
2023/03/21 00:25:05;;;;;;;10.77;5.40;;;;;;;;;;5031584;28;20072;-79
2023/03/21 00:27:32;;;;;;;15.32;5.78;;;;;;;;;;5031248;28;20057;-79
2023/03/21 00:30:20;;;;;;;10.13;5.45;;;;;;;;;;5032009;28;20040;-77
2023/03/21 00:32:48;;;;;;;10.88;5.40;;;;;;;;;;5034267;28;20049;-78
2023/03/21 00:35:22;;;;;;;11.25;5.78;;;;;;;;;;5064523;28;20532;-80
2023/03/21 00:38:11;;;;;;;12.43;5.70;;;;;;;;;;5028274;28;20069;-79
2023/03/21 00:40:38;;;;;;;13.15;6.40;;;;;;;;;;5015210;28;20639;-78
2023/03/21 00:43:16;;;;;;;13.80;6.07;;;;;;;;;;5029833;28;20052;-80
2023/03/21 00:45:43;;;;;;;13.40;5.88;;;;;;;;;;5039200;28;20636;-78
2023/03/21 00:48:10;;;;;;;12.57;5.63;;;;;;;;;;5031001;28;20046;-78
2023/03/21 00:50:37;;;;;;;10.73;5.45;;;;;;;;;;5030633;28;20056;-78
2023/03/21 00:53:05;;;;;;;13.00;5.10;;;;;;;;;;5033264;28;20059;-79
2023/03/21 00:55:31;;;;;;;12.60;4.93;;;;;;;;;;5033134;28;20033;-78
2023/03/21 00:57:58;;;;;;;8.40;4.13;;;;;;;;;;5063966;28;20399;-78
2023/03/21 01:00:28;;;;;;;7.10;3.75;;;;;;;;;;5031535;28;20041;-79
2023/03/21 01:02:57;;;;;;;8.20;3.47;;;;;;;;;;5033222;28;20125;-77
2023/03/21 01:06:03;;;;;;;9.88;2.65;;;;;;;;;;5045843;28;20520;-79
2023/03/21 01:08:40;;;;;;;7.38;2.85;;;;;;;;;;5066207;28;20053;-79
2023/03/21 01:11:20;;;;;;;6.20;2.78;;;;;;;;;;5030847;28;20091;-78
2023/03/21 01:13:46;;;;;;;6.72;2.78;;;;;;;;;;5029103;28;20053;-79
2023/03/21 01:16:24;;;;;;;7.50;2.70;;;;;;;;;;5030644;28;20049;-78
2023/03/21 01:18:51;;;;;;;7.88;2.50;;;;;;;;;;5028836;28;20768;-79
2023/03/21 01:21:18;;;;;;;6.45;2.60;;;;;;;;;;5032080;28;20087;-79
2023/03/21 01:23:45;;;;;;;7.80;2.72;;;;;;;;;;5031546;28;20053;-78
2023/03/21 01:26:12;;;;;;;7.82;3.30;;;;;;;;;;5033175;28;20091;-79
2023/03/21 01:28:40;;;;;;;5.53;2.40;;;;;;;;;;5032427;28;20099;-79
2023/03/21 01:31:07;;;;;;;8.15;3.28;;;;;;;;;;5031524;28;20104;-79
2023/03/21 01:33:34;;;;;;;6.03;2.38;;;;;;;;;;5035186;28;20403;-80
2023/03/21 01:36:02;;;;;;;8.15;2.92;;;;;;;;;;5029089;28;20128;-78
2023/03/21 01:38:41;;;;;;;5.28;2.42;;;;;;;;;;5058566;28;20046;-79
2023/03/21 01:41:16;;;;;;;5.45;2.50;;;;;;;;;;5027922;28;20045;-79
2023/03/21 01:43:46;;;;;;;5.00;2.47;;;;;;;;;;5025417;28;20057;-79
2023/03/21 01:46:20;;;;;;;4.82;2.30;;;;;;;;;;5026800;28;20065;-78
2023/03/21 01:49:12;;;;;;;5.45;2.70;;;;;;;;;;5042932;28;20109;-79
2023/03/21 01:51:42;;;;;;;6.75;2.70;;;;;;;;;;5046028;28;20049;-78
2023/03/21 01:54:14;;;;;;;5.25;2.33;;;;;;;;;;5079643;28;20042;-79
2023/03/21 01:56:42;;;;;;;4.03;2.50;;;;;;;;;;5048451;28;20049;-80
2023/03/21 01:59:16;;;;;;;6.72;2.55;;;;;;;;;;5045227;28;20047;-80
2023/03/21 02:02:06;;;;;;;6.35;2.80;;;;;;;;;;5047643;28;20056;-79
2023/03/21 02:04:39;;;;;;;4.57;2.65;;;;;;;;;;5045458;28;20041;-80
2023/03/21 02:07:17;;;;;;;7.38;2.78;;;;;;;;;;5047052;28;20117;-80
2023/03/21 02:09:50;;;;;;;6.28;2.47;;;;;;;;;;5044778;28;20063;-79
2023/03/21 02:12:20;;;;;;;6.82;2.85;;;;;;;;;;5033800;28;20704;-79
2023/03/21 02:14:48;;;;;;;6.78;2.60;;;;;;;;;;5033060;28;20096;-79
2023/03/21 02:17:49;;;;;;;7.10;2.60;;;;;;;;;;5029029;28;20168;-79
2023/03/21 02:20:39;;;;;;;5.95;2.75;;;;;;;;;;5067231;28;20064;-79
2023/03/21 02:23:06;;;;;;;8.43;3.03;;;;;;;;;;5033957;28;20088;-79
2023/03/21 02:25:48;;;;;;;7.18;3.05;;;;;;;;;;5069412;28;20294;-79
2023/03/21 02:28:20;;;;;;;6.57;2.75;;;;;;;;;;5034134;28;20049;-80
2023/03/21 02:31:06;;;;;;;8.15;2.95;;;;;;;;;;5051768;28;20299;-80
2023/03/21 02:33:51;;;;;;;8.00;3.47;;;;;;;;;;5019239;28;20053;-80
2023/03/21 02:36:27;;;;;;;11.32;3.95;;;;;;;;;;5052633;28;20080;-79
2023/03/21 02:38:57;;;;;;;16.73;4.45;;;;;;;;;;5034504;28;20120;-79
2023/03/21 02:41:27;;;;;;;14.48;4.60;;;;;;;;;;5038020;28;20068;-79
2023/03/21 02:44:09;;;;;;;15.07;4.85;;;;;;;;;;5047616;28;20041;-79
2023/03/21 02:46:48;;;;;;;14.27;4.28;;;;;;;;;;5031153;28;20057;-79
2023/03/21 02:49:41;;;;;;;9.32;4.57;;;;;;;;;;5015617;28;20047;-80
2023/03/21 02:52:13;;;;;;;10.38;4.18;;;;;;;;;;5019711;28;20049;-79
2023/03/21 02:54:58;;;;;;;8.73;4.25;;;;;;;;;;5017832;28;20071;-79
2023/03/21 02:57:32;;;;;;;10.02;4.78;;;;;;;;;;5022513;28;20052;-79
2023/03/21 03:00:12;;;;;;;12.45;4.55;;;;;;;;;;5016246;28;20485;-79
2023/03/21 03:02:44;;;;;;;9.57;4.88;;;;;;;;;;5036595;28;20037;-78
2023/03/21 03:05:21;;;;;;;12.90;4.50;;;;;;;;;;5070751;28;20041;-79
2023/03/21 03:08:22;;;;;;;10.75;4.75;;;;;;;;;;5036353;28;20071;-79
2023/03/21 03:11:27;;;;;;;11.68;4.25;;;;;;;;;;5019569;28;20041;-80
2023/03/21 03:14:11;;;;;;;9.25;4.28;;;;;;;;;;5018858;28;20053;-80
2023/03/21 03:17:04;;;;;;;9.00;5.03;;;;;;;;;;5037608;28;20098;-79
2023/03/21 03:19:35;;;;;;;9.77;4.13;;;;;;;;;;5036221;28;20573;-80
2023/03/21 03:22:22;;;;;;;10.05;4.28;;;;;;;;;;5037321;28;20029;-80
2023/03/21 03:24:58;;;;;;;10.88;4.65;;;;;;;;;;5035894;28;20513;-79
2023/03/21 03:27:42;;;;;;;10.32;5.22;;;;;;;;;;5069498;28;20034;-79
2023/03/21 03:30:09;;;;;;;12.40;4.63;;;;;;;;;;5035517;28;20562;-79
2023/03/21 03:32:48;;;;;;;9.60;4.75;;;;;;;;;;5036439;28;20057;-79
2023/03/21 03:35:18;;;;;;;11.73;4.32;;;;;;;;;;5054667;28;20052;-79
2023/03/21 03:37:48;;;;;;;13.40;5.32;;;;;;;;;;5049704;28;20037;-80
2023/03/21 03:40:17;;;;;;;12.93;4.75;;;;;;;;;;5050208;28;20044;-80
2023/03/21 03:42:55;;;;;;;10.25;5.10;;;;;;;;;;5050196;28;20063;-80
2023/03/21 03:45:33;;;;;;;11.57;5.22;;;;;;;;;;5051329;28;20038;-80
2023/03/21 03:48:10;;;;;;;9.73;4.78;;;;;;;;;;5083233;28;20045;-80
2023/03/21 03:50:44;;;;;;;11.15;4.95;;;;;;;;;;5049532;28;20113;-80
2023/03/21 03:53:14;;;;;;;;;;;;;;;;;;5048565;28;20041;-78
2023/03/21 03:55:45;;;;;;;10.70;4.68;;;;;;;;;;5038829;28;19968;-79
2023/03/21 03:58:18;;;;;;;16.48;4.88;;;;;;;;;;5027701;28;20060;-80
2023/03/21 04:00:55;;;;;;;11.10;5.22;;;;;;;;;;5022852;28;20073;-81
2023/03/21 04:03:22;;;;;;;12.32;4.72;;;;;;;;;;5054873;28;20052;-79
2023/03/21 04:05:52;;;;;;;10.20;5.25;;;;;;;;;;5041345;28;20072;-79
2023/03/21 04:08:22;;;;;;;13.95;5.82;;;;;;;;;;5026117;28;20045;-81
2023/03/21 04:10:52;;;;;;;12.45;5.55;;;;;;;;;;5043256;28;20045;-79
2023/03/21 04:13:19;;;;;;;11.20;5.93;;;;;;;;;;5040662;28;20041;-80
2023/03/21 04:16:02;;;;;;;12.45;5.75;;;;;;;;;;5046560;28;20061;-79
2023/03/21 04:18:29;;;;;;;15.05;5.88;;;;;;;;;;5044170;28;20140;-81
2023/03/21 04:20:57;;;;;;;12.38;6.18;;;;;;;;;;5047984;28;20042;-80
2023/03/21 04:23:28;;;;;;;15.18;6.32;;;;;;;;;;5076766;28;20091;-80
2023/03/21 04:25:54;;;;;;;14.43;6.22;;;;;;;;;;5042571;28;20475;-81
2023/03/21 04:28:35;;;;;;;16.13;7.07;;;;;;;;;;5041121;28;20052;-81
2023/03/21 04:31:20;;;;;;;19.15;7.28;;;;;;;;;;5067730;28;20052;-77
2023/03/21 04:34:00;;;;;;;12.75;7.13;;;;;;;;;;5030239;28;20045;-79
2023/03/21 04:36:37;;;;;;;17.10;7.47;;;;;;;;;;5017496;28;20703;-80
2023/03/21 04:39:11;;;;;;;16.33;8.02;;;;;;;;;;5018214;28;20052;-80
2023/03/21 04:41:39;;;;;;;18.23;8.35;;;;;;;;;;5012585;28;20042;-81
2023/03/21 04:44:06;;;;;;;16.70;8.13;;;;;;;;;;5019269;28;20089;-81
2023/03/21 04:46:33;;;;;;;17.45;7.63;;;;;;;;;;5024466;28;20092;-81
2023/03/21 04:49:00;;;;;;;18.77;7.80;;;;;;;;;;5027280;28;20061;-79
2023/03/21 04:51:27;;;;;;;19.13;7.95;;;;;;;;;;5031203;28;20041;-80
2023/03/21 04:53:57;;;;;;;21.25;8.38;;;;;;;;;;5023812;28;20088;-81
2023/03/21 04:56:34;;;;;;;18.60;8.85;;;;;;;;;;5034446;28;20442;-81
2023/03/21 04:59:05;;;;;;;18.80;8.63;;;;;;;;;;5009391;28;20710;-81
2023/03/21 05:01:32;;;;;;;17.08;8.40;;;;;;;;;;5011526;28;20121;-80
2023/03/21 05:04:00;;;;;;;22.75;8.88;;;;;;;;;;5010808;28;20050;-81
2023/03/21 05:06:30;;;;;;;19.38;8.55;;;;;;;;;;4995264;28;20514;-80
2023/03/21 05:09:04;;;;;;;20.05;8.38;;;;;;;;;;5029832;28;20099;-80
2023/03/21 05:11:34;;;;;;;22.38;9.25;;;;;;;;;;5030739;28;20088;-80
2023/03/21 05:14:01;;;;;;;26.08;9.40;;;;;;;;;;5026876;28;20052;-81
2023/03/21 05:16:29;;;;;;;28.65;9.63;;;;;;;;;;5029638;28;20096;-81
2023/03/21 05:19:03;;;;;;;23.85;8.32;;;;;;;;;;5027927;28;20140;-80
2023/03/21 05:21:42;;;;;;;24.05;9.48;;;;;;;;;;5044738;28;20037;-80
2023/03/21 05:24:18;;;;;;;23.75;9.80;;;;;;;;;;5060518;28;20069;-81
2023/03/21 05:26:49;;;;;;;28.63;9.35;;;;;;;;;;5022713;28;20042;-80
2023/03/21 05:29:18;;;;;;;24.65;9.20;;;;;;;;;;5028218;28;20135;-79
2023/03/21 05:31:51;;;;;;;21.58;9.32;;;;;;;;;;5029704;28;20040;-79
2023/03/21 05:34:20;;;;;;;28.25;9.05;;;;;;;;;;5028481;28;20053;-78
2023/03/21 05:36:47;;;;;;;24.45;9.30;;;;;;;;;;5055796;28;20133;-81
2023/03/21 05:39:14;;;;;;;24.55;9.07;;;;;;;;;;5013007;28;20439;-78
2023/03/21 05:41:49;;;;;;;22.17;8.85;;;;;;;;;;5062368;28;20132;-79
2023/03/21 05:44:15;;;;;;;23.90;8.85;;;;;;;;;;5029824;28;20041;-78
2023/03/21 05:46:42;;;;;;;21.45;8.73;;;;;;;;;;5029397;28;20045;-79
2023/03/21 05:49:10;;;;;;;26.35;9.10;;;;;;;;;;5031980;28;21027;-79
2023/03/21 05:51:37;;;;;;;23.10;8.85;;;;;;;;;;5032678;28;20033;-77
2023/03/21 05:54:04;;;;;;;21.67;8.65;;;;;;;;;;5028440;28;20053;-79
2023/03/21 05:56:30;;;;;;;25.08;8.82;;;;;;;;;;5027484;28;20472;-79
2023/03/21 05:59:02;;;;;;;23.05;8.43;;;;;;;;;;5027006;28;20045;-78
2023/03/21 06:01:32;;;;;;;19.15;8.85;;;;;;;;;;5031584;28;20092;-80
2023/03/21 06:04:10;;;;;;;16.13;8.57;;;;;;;;;;5015763;28;20240;-79
2023/03/21 06:06:38;;;;;;;21.73;9.00;;;;;;;;;;5037155;28;20406;-81
2023/03/21 06:09:05;;;;;;;20.08;8.35;;;;;;;;;;5040376;28;20061;-80
2023/03/21 06:11:33;;;;;;;18.85;7.65;;;;;;;;;;5042037;28;20041;-80
2023/03/21 06:14:29;;;;;;;17.60;7.38;;;;;;;;;;5028869;28;20046;-79
2023/03/21 06:17:22;;;;;;;16.98;7.80;;;;;;;;;;5034877;28;20394;-79
2023/03/21 06:19:56;;;;;;;14.65;7.13;;;;;;;;;;5036267;28;20068;-80
2023/03/21 06:22:29;;;;;;;18.63;7.47;;;;;;;;;;5040165;28;20039;-80
2023/03/21 06:24:56;;;;;;;21.95;7.55;;;;;;;;;;5038555;28;20041;-80
2023/03/21 06:27:23;;;;;;;14.25;7.28;;;;;;;;;;5035095;28;20452;-81
2023/03/21 06:29:52;;;;;;;20.20;7.57;;;;;;;;;;5038093;28;20049;-80
2023/03/21 06:32:20;;;;;;;18.25;7.15;;;;;;;;;;5071049;28;20045;-79
2023/03/21 06:34:50;;;;;;;15.40;6.78;;;;;;;;;;5036958;28;20052;-80
2023/03/21 06:37:17;;;;;;;18.45;6.90;;;;;;;;;;5034003;28;20442;-81
2023/03/21 06:39:45;;;;;;;17.65;6.53;;;;;;;;;;5033967;28;20045;-80
2023/03/21 06:42:13;;;;;;;23.50;6.80;;;;;;;;;;5068407;28;20478;-79
2023/03/21 06:44:40;;;;;;;15.60;6.95;;;;;;;;;;5034524;28;20055;-79
2023/03/21 06:47:11;;;;;;;20.30;6.90;;;;;;;;;;5035572;28;20155;-80
2023/03/21 06:49:41;;;;;;;17.20;6.78;;;;;;;;;;5034813;28;20061;-80
2023/03/21 06:52:10;;;;;;;14.45;5.90;;;;;;;;;;5035278;28;20045;-79
2023/03/21 06:54:37;;;;;;;12.48;6.57;;;;;;;;;;5035294;28;20048;-79
2023/03/21 06:57:12;;;;;;;15.55;6.18;;;;;;;;;;5051331;28;20053;-79
2023/03/21 06:59:40;;;;;;;15.18;5.80;;;;;;;;;;5014944;28;20034;-80
2023/03/21 07:02:27;;;;;;;13.05;5.57;;;;;;;;;;5037727;28;20051;-79
2023/03/21 07:05:15;;;;;;;15.80;6.15;;;;;;;;;;5036602;28;20600;-78
2023/03/21 07:07:42;;;;;;;21.52;6.75;;;;;;;;;;5034900;28;20068;-78
2023/03/21 07:10:09;;;;;;;18.33;6.53;;;;;;;;;;5033641;28;20092;-80
2023/03/21 07:12:58;;;;;;;12.35;5.15;;;;;;;;;;5016212;28;20038;-78
2023/03/21 07:15:40;;;;;;;13.02;5.53;;;;;;;;;;5036792;28;20038;-81
2023/03/21 07:18:07;;;;;;;16.05;6.13;;;;;;;;;;5016221;28;20056;-78
2023/03/21 07:20:36;;;;;;;12.52;5.88;;;;;;;;;;5016136;28;20042;-79
2023/03/21 07:23:03;;;;;;;12.18;5.40;;;;;;;;;;5047606;28;20060;-79
2023/03/21 07:25:30;;;;;;;11.57;5.32;;;;;;;;;;5015094;28;20046;-80
2023/03/21 07:27:56;;;;;;;15.75;5.93;;;;;;;;;;5046854;28;20072;-78
2023/03/21 07:30:23;;;;;;;15.40;5.72;;;;;;;;;;5014133;28;20151;-79
2023/03/21 07:32:50;;;;;;;10.90;5.53;;;;;;;;;;5049750;28;20128;-79
2023/03/21 07:35:16;;;;;;;13.38;5.43;;;;;;;;;;5047832;28;20103;-80
2023/03/21 07:37:43;;;;;;;16.33;6.03;;;;;;;;;;5012136;28;20053;-79
2023/03/21 07:40:13;;;;;;;14.00;5.78;;;;;;;;;;5025133;28;20037;-80
2023/03/21 07:42:41;;;;;;;11.93;5.32;;;;;;;;;;5036918;28;20041;-79
2023/03/21 07:45:13;;;;;;;16.00;5.47;;;;;;;;;;5010813;28;20468;-77
2023/03/21 07:47:44;;;;;;;13.93;5.40;;;;;;;;;;5021285;28;20042;-78
2023/03/21 07:50:11;;;;;;;13.15;5.70;;;;;;;;;;5014862;28;20049;-79
2023/03/21 07:52:39;;;;;;;13.77;5.60;;;;;;;;;;5014745;28;20541;-80
2023/03/21 07:55:06;;;;;;;13.23;5.15;;;;;;;;;;5018156;28;20382;-79
2023/03/21 07:57:33;;;;;;;17.52;5.70;;;;;;;;;;5014496;28;20056;-81
2023/03/21 08:00:00;;;;;;;13.57;6.13;;;;;;;;;;5014517;28;20050;-79
2023/03/21 08:02:38;;;;;;;13.55;6.80;;;;;;;;;;5016184;28;20072;-79
2023/03/21 08:05:10;;;;;;;15.10;6.35;;;;;;;;;;5014708;28;20038;-78
2023/03/21 08:07:37;;;;;;;18.38;7.28;;;;;;;;;;5016263;28;20042;-79
2023/03/21 08:10:04;;;;;;;21.10;7.30;;;;;;;;;;5014853;28;20046;-79
2023/03/21 08:12:31;;;;;;;17.90;6.78;;;;;;;;;;5027895;28;20098;-79
2023/03/21 08:14:57;;;;;;;15.90;6.63;;;;;;;;;;5035687;28;20055;-80
2023/03/21 08:17:26;;;;;;;21.42;6.95;;;;;;;;;;5036292;28;20034;-79
2023/03/21 08:19:53;;;;;;;14.52;6.57;;;;;;;;;;5037698;28;20053;-79
2023/03/21 08:22:20;;;;;;;18.02;6.30;;;;;;;;;;5038090;28;20056;-79
2023/03/21 08:24:47;;;;;;;15.05;5.90;;;;;;;;;;5053717;28;20050;-79
2023/03/21 08:27:14;;;;;;;13.38;6.00;;;;;;;;;;5034593;28;20136;-81
2023/03/21 08:29:41;;;;;;;12.50;5.88;;;;;;;;;;5038407;28;20045;-80
2023/03/21 08:32:08;;;;;;;13.27;6.30;;;;;;;;;;5039958;28;20053;-80
2023/03/21 08:34:36;;;;;;;10.30;5.95;;;;;;;;;;5038878;28;20033;-80
2023/03/21 08:37:06;;;;;;;15.45;6.30;;;;;;;;;;5035961;28;20068;-80
2023/03/21 08:39:32;;;;;;;14.27;5.95;;;;;;;;;;5036737;28;20042;-80
2023/03/21 08:41:59;;;;;;;11.05;5.40;;;;;;;;;;5035340;28;20053;-79
2023/03/21 08:44:26;;;;;;;16.60;6.07;;;;;;;;;;5032563;28;20042;-79
2023/03/21 08:46:52;;;;;;;15.85;6.13;;;;;;;;;;5015213;28;20056;-79
2023/03/21 08:49:19;;;;;;;10.88;5.57;;;;;;;;;;5015136;28;20061;-79
2023/03/21 08:51:46;;;;;;;13.38;5.72;;;;;;;;;;5049605;28;20060;-79
2023/03/21 08:54:17;;;;;;;12.18;5.03;;;;;;;;;;5014090;28;20048;-79
2023/03/21 08:56:44;;;;;;;16.33;5.60;;;;;;;;;;5013938;28;20041;-79
2023/03/21 08:59:11;;;;;;;14.77;5.47;;;;;;;;;;5013468;28;20050;-80
2023/03/21 09:01:38;;;;;;;9.82;5.22;;;;;;;;;;5017740;28;20034;-81
2023/03/21 09:04:06;;;;;;;10.45;5.53;;;;;;;;;;5018379;28;20128;-80
2023/03/21 09:06:33;;;;;;;9.65;5.10;;;;;;;;;;5019084;28;20046;-80
2023/03/21 09:09:00;;;;;;;11.23;5.28;;;;;;;;;;5019991;28;20073;-80
2023/03/21 09:11:27;;;;;;;8.50;4.50;;;;;;;;;;5020384;28;20086;-80
2023/03/21 09:13:53;;;;;;;8.27;4.25;;;;;;;;;;5015933;28;20061;-80
2023/03/21 09:16:20;;;;;;;8.27;4.38;;;;;;;;;;5019658;28;20073;-81
2023/03/21 09:18:49;;;;;;;8.35;4.15;;;;;;;;;;5017098;28;20437;-80
2023/03/21 09:21:17;;;;;;;9.40;4.57;;;;;;;;;;5017451;28;20132;-80
2023/03/21 09:23:44;;;;;;;8.95;4.07;;;;;;;;;;5016110;28;20538;-80
2023/03/21 09:26:12;;;;;;;8.02;4.70;;;;;;;;;;5016401;28;20065;-80
2023/03/21 09:28:39;;;;;;;13.93;3.40;;;;;;;;;;5016122;28;20101;-81
2023/03/21 09:31:07;;;;;;;8.75;4.15;;;;;;;;;;5017946;28;20110;-81
2023/03/21 09:33:34;;;;;;;9.80;4.40;;;;;;;;;;5024139;28;20113;-81
2023/03/21 09:36:02;;;;;;;9.30;4.63;;;;;;;;;;5021607;28;20057;-79
2023/03/21 09:38:29;;;;;;;8.23;4.00;;;;;;;;;;5020787;28;20088;-82
2023/03/21 09:41:15;;;;;;;7.55;3.90;;;;;;;;;;5028070;28;20347;-81
2023/03/21 09:43:48;;;;;;;5.68;3.60;;;;;;;;;;5026390;28;20053;-81
2023/03/21 09:46:18;;;;;;;6.70;3.20;;;;;;;;;;5025737;28;20060;-81
2023/03/21 09:48:55;;;;;;;8.23;3.40;;;;;;;;;;5027433;28;20080;-80
2023/03/21 09:51:35;;;;;;;5.85;3.45;;;;;;;;;;5032666;28;20061;-80
2023/03/21 09:54:06;;;;;;;6.97;3.50;;;;;;;;;;5029340;28;20049;-80
2023/03/21 09:56:35;;;;;;;7.13;3.20;;;;;;;;;;5020883;28;20129;-80
2023/03/21 09:59:06;;;;;;;6.85;2.63;;;;;;;;;;5045565;28;20064;-80
2023/03/21 10:01:36;;;;;;;5.20;2.78;;;;;;;;;;5036636;28;20157;-79
2023/03/21 10:04:05;;;;;;;4.78;2.72;;;;;;;;;;5031036;28;20054;-79
2023/03/21 10:06:34;;;;;;;7.53;3.35;;;;;;;;;;5037746;28;20062;-81
2023/03/21 10:09:08;;;;;;;9.00;2.95;;;;;;;;;;5028959;28;20145;-80
2023/03/21 10:11:42;;;;;;;5.85;2.83;;;;;;;;;;5029876;28;20157;-80
2023/03/21 10:14:14;;;;;;;5.00;2.72;;;;;;;;;;5044632;28;20108;-80
2023/03/21 10:16:42;;;;;;;5.88;3.00;;;;;;;;;;5026348;28;20072;-81
2023/03/21 10:19:13;;;;;;;4.30;2.58;;;;;;;;;;5010728;28;20140;-81
2023/03/21 10:21:45;;;;;;;5.32;2.42;;;;;;;;;;5029224;28;20129;-80
2023/03/21 10:24:30;;;;;;;4.78;2.33;;;;;;;;;;5034403;28;20426;-80
2023/03/21 10:26:57;;;;;;;4.30;2.58;;;;;;;;;;5027339;28;20062;-81
2023/03/21 10:29:31;;;;;;;4.40;2.13;;;;;;;;;;5027508;28;20061;-79
2023/03/21 10:31:57;;;;;;;7.93;2.25;;;;;;;;;;5030375;28;20129;-80
2023/03/21 10:34:30;;;;;;;4.78;2.45;;;;;;;;;;5031518;28;20057;-80
2023/03/21 10:36:59;;;;;;;4.95;2.42;;;;;;;;;;5024271;28;20046;-78
2023/03/21 10:39:34;;;;;;;4.72;2.38;;;;;;;;;;5020317;28;20076;-80
2023/03/21 10:42:04;;;;;;;7.35;2.35;;;;;;;;;;5024299;28;20050;-79
2023/03/21 10:44:31;;;;;;;4.25;2.30;;;;;;;;;;5022170;28;20050;-80
2023/03/21 10:47:08;;;;;;;3.60;2.30;;;;;;;;;;5021137;28;20060;-79
2023/03/21 10:49:36;;;;;;;2.97;1.70;;;;;;;;;;5025778;28;20052;-80
2023/03/21 10:52:26;;;;;;;4.78;2.00;;;;;;;;;;5017056;28;20050;-78
2023/03/21 10:55:04;;;;;;;3.95;1.90;;;;;;;;;;5020198;28;20066;-79
2023/03/21 10:57:32;;;;;;;5.38;2.45;;;;;;;;;;5003608;28;20054;-79
2023/03/21 11:00:01;;;;;;;1.98;1.45;;;;;;;;;;5018980;28;20046;-81
2023/03/21 11:02:32;;;;;;;4.43;1.90;;;;;;;;;;5022466;28;20046;-80
2023/03/21 11:05:04;;;;;;;2.85;1.55;;;;;;;;;;5021324;28;20046;-81
2023/03/21 11:07:32;;;;;;;3.97;1.55;;;;;;;;;;5022175;28;20058;-80
2023/03/21 11:09:59;;;;;;;3.33;1.55;;;;;;;;;;5014726;28;20048;-80
2023/03/21 11:12:32;;;;;;;3.75;1.77;;;;;;;;;;5009787;28;20469;-79
2023/03/21 11:15:19;;;;;;;3.08;1.50;;;;;;;;;;5011267;28;20066;-80
2023/03/21 11:17:46;;;;;;;1.77;1.20;;;;;;;;;;5010455;28;20045;-79
2023/03/21 11:20:17;;;;;;;5.60;1.65;;;;;;;;;;5010667;28;20045;-80
2023/03/21 11:22:45;;;;;;;2.30;1.50;;;;;;;;;;5012465;28;20069;-78
2023/03/21 11:25:30;;;;;;;4.20;1.80;;;;;;;;;;5013328;28;20070;-79
2023/03/21 11:27:57;;;;;;;2.65;1.40;;;;;;;;;;5014464;28;20523;-80
2023/03/21 11:30:25;;;;;;;2.95;1.45;;;;;;;;;;5020740;28;20042;-80
2023/03/21 11:33:00;;;;;;;2.03;0.98;;;;;;;;;;5015006;28;20054;-79
2023/03/21 11:35:27;;;;;;;;;;;;;;;;;;5019008;28;20332;-80
2023/03/21 11:37:55;;;;;;;3.03;1.40;;;;;;;;;;5036538;28;19932;-80
2023/03/21 11:40:24;;;;;;;5.22;1.83;;;;;;;;;;5038529;28;20095;-79
2023/03/21 11:42:52;;;;;;;3.30;2.10;;;;;;;;;;5027178;28;20054;-80
2023/03/21 11:45:32;;;;;;;3.72;1.88;;;;;;;;;;5040888;28;20506;-79
2023/03/21 11:48:00;;;;;;;4.32;1.90;;;;;;;;;;5027796;28;20037;-79
2023/03/21 11:50:29;;;;;;;2.58;1.90;;;;;;;;;;5024121;28;20453;-80
2023/03/21 11:53:14;;;;;;;5.05;2.30;;;;;;;;;;5030004;28;20057;-80
2023/03/21 11:55:41;;;;;;;3.55;1.83;;;;;;;;;;5026740;28;20041;-80
2023/03/21 11:58:10;;;;;;;5.60;2.13;;;;;;;;;;5035937;28;20045;-79
2023/03/21 12:00:40;;;;;;;3.15;2.10;;;;;;;;;;5032168;28;20046;-80
2023/03/21 12:03:25;;;;;;;4.88;1.92;;;;;;;;;;5032891;28;20053;-79
2023/03/21 12:05:59;;;;;;;7.18;2.17;;;;;;;;;;5031310;28;20114;-79
2023/03/21 12:08:31;;;;;;;4.07;2.30;;;;;;;;;;5064407;28;20072;-79
2023/03/21 12:11:14;;;;;;;3.67;2.03;;;;;;;;;;5031398;28;20073;-79
2023/03/21 12:13:42;;;;;;;3.80;2.03;;;;;;;;;;5030380;28;20571;-79
2023/03/21 12:16:08;;;;;;;4.43;1.77;;;;;;;;;;5033881;28;20548;-78
2023/03/21 12:18:48;;;;;;;5.38;2.53;;;;;;;;;;5033403;28;20126;-79
2023/03/21 12:21:19;;;;;;;4.95;1.90;;;;;;;;;;5028522;28;20125;-80
2023/03/21 12:24:04;;;;;;;5.95;1.80;;;;;;;;;;5031504;28;20454;-80
2023/03/21 12:26:35;;;;;;;5.30;2.10;;;;;;;;;;5031794;28;20048;-78
2023/03/21 12:29:40;;;;;;;3.45;1.88;;;;;;;;;;5028647;28;20448;-80
2023/03/21 12:32:07;;;;;;;4.75;2.00;;;;;;;;;;4986879;28;20554;-79
2023/03/21 12:34:40;;;;;;;2.47;1.13;;;;;;;;;;5003573;28;20232;-79
2023/03/21 12:37:25;;;;;;;3.60;1.83;;;;;;;;;;5025357;28;20182;-80
2023/03/21 12:39:54;;;;;;;3.80;1.92;;;;;;;;;;5028888;28;20049;-80
2023/03/21 12:42:33;;;;;;;4.47;2.25;;;;;;;;;;5024209;28;20057;-80
2023/03/21 12:45:09;;;;;;;2.78;1.50;;;;;;;;;;5020312;28;20085;-79
2023/03/21 12:47:43;;;;;;;3.38;1.55;;;;;;;;;;5021243;28;20211;-79
2023/03/21 12:50:16;;;;;;;2.50;1.73;;;;;;;;;;5020560;28;20414;-80
2023/03/21 12:52:46;;;;;;;4.95;2.10;;;;;;;;;;5033920;28;20045;-79
2023/03/21 12:55:12;;;;;;;4.97;1.95;;;;;;;;;;5039360;28;20061;-80
2023/03/21 12:57:54;;;;;;;3.38;1.58;;;;;;;;;;5041772;28;20053;-80
2023/03/21 13:00:32;;;;;;;5.85;2.05;;;;;;;;;;5040549;28;20045;-80
2023/03/21 13:02:59;;;;;;;;;;;;;;;;;;5042605;28;20049;-80
2023/03/21 13:05:39;;;;;;;3.30;1.90;;;;;;;;;;5042114;28;19956;-80
2023/03/21 13:08:10;;;;;;;5.47;2.38;;;;;;;;;;5042076;28;20046;-80
2023/03/21 13:10:40;;;;;;;4.65;1.98;;;;;;;;;;5038869;28;20113;-80
2023/03/21 13:13:08;;;;;;;3.33;1.80;;;;;;;;;;5040856;28;20179;-80
2023/03/21 13:15:38;;;;;;;3.80;1.80;;;;;;;;;;5040120;28;20068;-80
2023/03/21 13:18:23;;;;;;;4.55;2.00;;;;;;;;;;5042100;28;20064;-80
2023/03/21 13:20:57;;;;;;;3.53;1.43;;;;;;;;;;5038419;28;20071;-79
2023/03/21 13:23:24;;;;;;;3.28;1.90;;;;;;;;;;5042444;28;20072;-79
2023/03/21 13:25:53;;;;;;;7.68;1.85;;;;;;;;;;5040475;28;20055;-79
2023/03/21 13:28:26;;;;;;;3.67;1.85;;;;;;;;;;5037807;28;20128;-79
2023/03/21 13:31:12;;;;;;;5.32;1.85;;;;;;;;;;5041064;28;20118;-80
2023/03/21 13:33:43;;;;;;;6.32;1.98;;;;;;;;;;5042808;28;20053;-80
2023/03/21 13:36:11;;;;;;;8.27;2.05;;;;;;;;;;5040516;28;20059;-79
2023/03/21 13:38:42;;;;;;;4.55;1.70;;;;;;;;;;5042044;28;20113;-79
2023/03/21 13:41:27;;;;;;;8.60;2.22;;;;;;;;;;5038379;28;20049;-78
2023/03/21 13:43:59;;;;;;;8.50;2.23;;;;;;;;;;5040115;28;20060;-79
2023/03/21 13:46:26;;;;;;;5.90;2.25;;;;;;;;;;5040162;28;20041;-79
2023/03/21 13:49:01;;;;;;;4.22;1.90;;;;;;;;;;5042214;28;20045;-79
2023/03/21 13:51:27;;;;;;;4.57;1.70;;;;;;;;;;5073351;28;20049;-80
2023/03/21 13:54:00;;;;;;;6.18;1.70;;;;;;;;;;5042037;28;20406;-79
2023/03/21 13:56:29;;;;;;;5.05;2.40;;;;;;;;;;5040614;28;20045;-79
2023/03/21 13:59:00;;;;;;;5.38;2.15;;;;;;;;;;5040720;28;20057;-80
2023/03/21 14:01:34;;;;;;;4.57;2.15;;;;;;;;;;5042950;28;20041;-79
2023/03/21 14:04:04;;;;;;;6.13;2.00;;;;;;;;;;5073310;28;20055;-80
2023/03/21 14:06:36;;;;;;;3.55;2.00;;;;;;;;;;5041170;28;20049;-80
2023/03/21 14:09:03;;;;;;;4.05;1.80;;;;;;;;;;5041031;28;20049;-80
2023/03/21 14:11:31;;;;;;;6.15;2.42;;;;;;;;;;5040656;28;20049;-79
2023/03/21 14:13:59;;;;;;;2.92;1.65;;;;;;;;;;5038924;28;20115;-79
2023/03/21 14:16:29;;;;;;;3.88;1.80;;;;;;;;;;5039089;28;20104;-79
2023/03/21 14:18:58;;;;;;;4.13;1.70;;;;;;;;;;5040059;28;20073;-79
2023/03/21 14:21:28;;;;;;;4.70;1.90;;;;;;;;;;5041250;28;20109;-78
2023/03/21 14:23:56;;;;;;;4.88;1.65;;;;;;;;;;5040576;28;20056;-80
2023/03/21 14:26:24;;;;;;;2.30;1.25;;;;;;;;;;5024348;28;20059;-79
2023/03/21 14:28:51;;;;;;;4.13;1.40;;;;;;;;;;5043524;28;20045;-79
2023/03/21 14:31:19;;;;;;;3.70;1.60;;;;;;;;;;5045528;28;20069;-79
2023/03/21 14:33:52;;;;;;;5.10;2.20;;;;;;;;;;5044209;28;20060;-80
2023/03/21 14:36:22;;;;;;;3.75;1.48;;;;;;;;;;5039463;28;20057;-80
2023/03/21 14:39:00;;;;;;;5.80;1.50;;;;;;;;;;5041687;28;20106;-79
2023/03/21 14:41:28;;;;;;;4.57;1.65;;;;;;;;;;5040098;28;20045;-78
2023/03/21 14:44:14;;;;;;;3.83;2.00;;;;;;;;;;5039748;28;20049;-80
2023/03/21 14:46:42;;;;;;;5.45;1.60;;;;;;;;;;5019814;28;20061;-80
2023/03/21 14:49:17;;;;;;;5.68;1.70;;;;;;;;;;5027115;28;20673;-80
2023/03/21 14:51:45;;;;;;;5.10;1.50;;;;;;;;;;5034984;28;20041;-80
2023/03/21 14:54:16;;;;;;;3.58;1.90;;;;;;;;;;5036645;28;20037;-79
2023/03/21 14:56:47;;;;;;;4.30;1.90;;;;;;;;;;5072209;28;20096;-80
2023/03/21 14:59:16;;;;;;;9.50;2.00;;;;;;;;;;5034921;28;20046;-80
2023/03/21 15:01:44;;;;;;;6.30;1.67;;;;;;;;;;5044588;28;20049;-80
2023/03/21 15:04:13;;;;;;;3.47;1.67;;;;;;;;;;5031517;28;20057;-80
2023/03/21 15:06:50;;;;;;;4.15;1.90;;;;;;;;;;5036785;28;20052;-80